sensor_id;sensor_type;location;lat;lon;timestamp;P1;durP1;ratioP1;P2;durP2;ratioP2
75894;SDS011;64573;50.328;15.014;2023-09-12T00:00:11;10.60;;;7.53;;
75894;SDS011;64573;50.328;15.014;2023-09-12T00:02:37;11.48;;;7.03;;
75894;SDS011;64573;50.328;15.014;2023-09-12T00:07:32;8.68;;;6.90;;
75894;SDS011;64573;50.328;15.014;2023-09-12T00:14:56;12.57;;;7.55;;
75894;SDS011;64573;50.328;15.014;2023-09-12T00:17:21;12.20;;;7.57;;
75894;SDS011;64573;50.328;15.014;2023-09-12T00:19:47;10.27;;;6.82;;
75894;SDS011;64573;50.328;15.014;2023-09-12T00:22:12;10.55;;;7.90;;
75894;SDS011;64573;50.328;15.014;2023-09-12T00:24:37;9.52;;;7.38;;
75894;SDS011;64573;50.328;15.014;2023-09-12T00:27:03;12.65;;;7.45;;
75894;SDS011;64573;50.328;15.014;2023-09-12T00:31:54;11.35;;;7.05;;
75894;SDS011;64573;50.328;15.014;2023-09-12T00:34:20;9.82;;;7.95;;
75894;SDS011;64573;50.328;15.014;2023-09-12T00:39:14;11.93;;;7.70;;
75894;SDS011;64573;50.328;15.014;2023-09-12T00:41:40;10.57;;;7.43;;
75894;SDS011;64573;50.328;15.014;2023-09-12T00:44:05;15.80;;;7.57;;
75894;SDS011;64573;50.328;15.014;2023-09-12T00:46:31;15.00;;;7.25;;
75894;SDS011;64573;50.328;15.014;2023-09-12T00:48:57;14.70;;;8.07;;
75894;SDS011;64573;50.328;15.014;2023-09-12T00:51:23;11.15;;;7.20;;
75894;SDS011;64573;50.328;15.014;2023-09-12T00:53:50;12.07;;;7.82;;
75894;SDS011;64573;50.328;15.014;2023-09-12T00:56:16;12.05;;;7.63;;
75894;SDS011;64573;50.328;15.014;2023-09-12T00:58:41;11.52;;;7.32;;
75894;SDS011;64573;50.328;15.014;2023-09-12T01:01:06;10.25;;;6.97;;
75894;SDS011;64573;50.328;15.014;2023-09-12T01:03:32;12.23;;;7.07;;
75894;SDS011;64573;50.328;15.014;2023-09-12T01:05:58;8.85;;;7.30;;
75894;SDS011;64573;50.328;15.014;2023-09-12T01:08:25;10.98;;;6.90;;
75894;SDS011;64573;50.328;15.014;2023-09-12T01:10:51;10.55;;;7.18;;
75894;SDS011;64573;50.328;15.014;2023-09-12T01:13:18;10.25;;;7.30;;
75894;SDS011;64573;50.328;15.014;2023-09-12T01:15:44;10.23;;;7.60;;
75894;SDS011;64573;50.328;15.014;2023-09-12T01:18:09;10.35;;;7.25;;
75894;SDS011;64573;50.328;15.014;2023-09-12T01:20:36;12.88;;;7.22;;
75894;SDS011;64573;50.328;15.014;2023-09-12T01:28:41;14.73;;;7.70;;
75894;SDS011;64573;50.328;15.014;2023-09-12T01:31:07;12.20;;;7.82;;
75894;SDS011;64573;50.328;15.014;2023-09-12T01:33:33;11.68;;;8.05;;
75894;SDS011;64573;50.328;15.014;2023-09-12T01:35:58;15.25;;;8.10;;
75894;SDS011;64573;50.328;15.014;2023-09-12T01:38:24;11.85;;;8.18;;
75894;SDS011;64573;50.328;15.014;2023-09-12T01:40:50;12.15;;;8.30;;
75894;SDS011;64573;50.328;15.014;2023-09-12T01:43:17;11.38;;;8.20;;
75894;SDS011;64573;50.328;15.014;2023-09-12T01:45:44;15.68;;;8.18;;
75894;SDS011;64573;50.328;15.014;2023-09-12T01:48:12;16.63;;;8.93;;
75894;SDS011;64573;50.328;15.014;2023-09-12T01:50:40;11.60;;;7.60;;
75894;SDS011;64573;50.328;15.014;2023-09-12T01:53:06;12.07;;;7.70;;
75894;SDS011;64573;50.328;15.014;2023-09-12T01:55:31;13.32;;;7.88;;
75894;SDS011;64573;50.328;15.014;2023-09-12T01:57:57;11.60;;;8.63;;
75894;SDS011;64573;50.328;15.014;2023-09-12T02:00:23;11.63;;;9.15;;
75894;SDS011;64573;50.328;15.014;2023-09-12T02:02:48;12.25;;;9.40;;
75894;SDS011;64573;50.328;15.014;2023-09-12T02:07:41;14.77;;;9.70;;
75894;SDS011;64573;50.328;15.014;2023-09-12T02:10:06;14.57;;;9.82;;
75894;SDS011;64573;50.328;15.014;2023-09-12T02:12:32;13.40;;;9.10;;
75894;SDS011;64573;50.328;15.014;2023-09-12T02:14:58;12.18;;;10.05;;
75894;SDS011;64573;50.328;15.014;2023-09-12T02:17:23;14.18;;;9.23;;
75894;SDS011;64573;50.328;15.014;2023-09-12T02:19:48;16.73;;;9.55;;
75894;SDS011;64573;50.328;15.014;2023-09-12T02:22:14;15.32;;;8.75;;
75894;SDS011;64573;50.328;15.014;2023-09-12T02:24:39;11.43;;;9.02;;
75894;SDS011;64573;50.328;15.014;2023-09-12T02:29:40;13.63;;;8.43;;
75894;SDS011;64573;50.328;15.014;2023-09-12T02:36:59;12.30;;;8.80;;
75894;SDS011;64573;50.328;15.014;2023-09-12T02:39:24;10.93;;;8.18;;
75894;SDS011;64573;50.328;15.014;2023-09-12T02:41:50;10.75;;;8.60;;
75894;SDS011;64573;50.328;15.014;2023-09-12T02:44:15;14.30;;;8.85;;
75894;SDS011;64573;50.328;15.014;2023-09-12T02:49:06;13.02;;;8.57;;
75894;SDS011;64573;50.328;15.014;2023-09-12T02:54:06;12.30;;;9.05;;
75894;SDS011;64573;50.328;15.014;2023-09-12T02:56:32;12.77;;;8.77;;
75894;SDS011;64573;50.328;15.014;2023-09-12T02:58:57;15.13;;;8.82;;
75894;SDS011;64573;50.328;15.014;2023-09-12T03:01:23;13.68;;;9.60;;
75894;SDS011;64573;50.328;15.014;2023-09-12T03:03:51;11.52;;;8.75;;
75894;SDS011;64573;50.328;15.014;2023-09-12T03:06:16;12.80;;;8.43;;
75894;SDS011;64573;50.328;15.014;2023-09-12T03:08:43;12.27;;;8.38;;
75894;SDS011;64573;50.328;15.014;2023-09-12T03:18:37;15.43;;;9.02;;
75894;SDS011;64573;50.328;15.014;2023-09-12T03:21:03;12.60;;;9.38;;
75894;SDS011;64573;50.328;15.014;2023-09-12T03:23:29;12.70;;;9.60;;
75894;SDS011;64573;50.328;15.014;2023-09-12T03:28:29;14.63;;;10.07;;
75894;SDS011;64573;50.328;15.014;2023-09-12T03:31:06;15.77;;;9.70;;
75894;SDS011;64573;50.328;15.014;2023-09-12T03:33:32;15.63;;;9.82;;
75894;SDS011;64573;50.328;15.014;2023-09-12T03:35:58;14.25;;;10.18;;
75894;SDS011;64573;50.328;15.014;2023-09-12T03:38:23;15.98;;;9.98;;
75894;SDS011;64573;50.328;15.014;2023-09-12T03:40:49;15.15;;;10.00;;
75894;SDS011;64573;50.328;15.014;2023-09-12T03:43:14;14.73;;;10.00;;
75894;SDS011;64573;50.328;15.014;2023-09-12T03:45:39;12.32;;;9.80;;
75894;SDS011;64573;50.328;15.014;2023-09-12T03:48:05;13.02;;;9.82;;
75894;SDS011;64573;50.328;15.014;2023-09-12T03:50:30;14.10;;;10.70;;
75894;SDS011;64573;50.328;15.014;2023-09-12T03:52:56;13.45;;;10.30;;
75894;SDS011;64573;50.328;15.014;2023-09-12T03:57:54;12.63;;;9.60;;
75894;SDS011;64573;50.328;15.014;2023-09-12T04:00:19;13.52;;;9.68;;
75894;SDS011;64573;50.328;15.014;2023-09-12T04:02:48;16.75;;;10.27;;
75894;SDS011;64573;50.328;15.014;2023-09-12T04:05:13;20.90;;;10.27;;
75894;SDS011;64573;50.328;15.014;2023-09-12T04:07:39;17.20;;;10.77;;
75894;SDS011;64573;50.328;15.014;2023-09-12T04:10:04;16.00;;;11.00;;
75894;SDS011;64573;50.328;15.014;2023-09-12T04:15:05;18.95;;;10.57;;
75894;SDS011;64573;50.328;15.014;2023-09-12T04:17:31;14.98;;;11.10;;
75894;SDS011;64573;50.328;15.014;2023-09-12T04:19:56;13.95;;;10.02;;
75894;SDS011;64573;50.328;15.014;2023-09-12T04:22:22;16.95;;;10.20;;
75894;SDS011;64573;50.328;15.014;2023-09-12T04:24:47;16.25;;;10.75;;
75894;SDS011;64573;50.328;15.014;2023-09-12T04:27:12;18.77;;;11.15;;
75894;SDS011;64573;50.328;15.014;2023-09-12T04:32:07;16.13;;;10.45;;
75894;SDS011;64573;50.328;15.014;2023-09-12T04:34:33;14.32;;;10.98;;
75894;SDS011;64573;50.328;15.014;2023-09-12T04:36:58;13.27;;;9.82;;
75894;SDS011;64573;50.328;15.014;2023-09-12T04:39:23;15.82;;;10.88;;
75894;SDS011;64573;50.328;15.014;2023-09-12T04:41:49;16.17;;;10.60;;
75894;SDS011;64573;50.328;15.014;2023-09-12T04:44:14;17.65;;;10.70;;
75894;SDS011;64573;50.328;15.014;2023-09-12T04:46:40;14.68;;;10.90;;
75894;SDS011;64573;50.328;15.014;2023-09-12T04:49:05;19.55;;;10.85;;
75894;SDS011;64573;50.328;15.014;2023-09-12T04:51:30;15.13;;;10.57;;
75894;SDS011;64573;50.328;15.014;2023-09-12T04:53:56;16.83;;;10.85;;
75894;SDS011;64573;50.328;15.014;2023-09-12T04:56:23;17.33;;;11.30;;
75894;SDS011;64573;50.328;15.014;2023-09-12T04:58:52;15.32;;;11.43;;
75894;SDS011;64573;50.328;15.014;2023-09-12T05:01:17;18.67;;;10.70;;
75894;SDS011;64573;50.328;15.014;2023-09-12T05:03:43;14.20;;;10.65;;
75894;SDS011;64573;50.328;15.014;2023-09-12T05:06:09;16.15;;;11.07;;
75894;SDS011;64573;50.328;15.014;2023-09-12T05:08:35;16.13;;;10.32;;
75894;SDS011;64573;50.328;15.014;2023-09-12T05:11:00;17.35;;;10.27;;
75894;SDS011;64573;50.328;15.014;2023-09-12T05:13:27;17.27;;;11.55;;
75894;SDS011;64573;50.328;15.014;2023-09-12T05:15:53;13.35;;;10.60;;
75894;SDS011;64573;50.328;15.014;2023-09-12T05:18:18;14.25;;;10.43;;
75894;SDS011;64573;50.328;15.014;2023-09-12T05:20:43;12.98;;;10.25;;
75894;SDS011;64573;50.328;15.014;2023-09-12T05:23:08;17.02;;;10.65;;
75894;SDS011;64573;50.328;15.014;2023-09-12T05:25:34;14.85;;;11.80;;
75894;SDS011;64573;50.328;15.014;2023-09-12T05:27:59;19.50;;;11.02;;
75894;SDS011;64573;50.328;15.014;2023-09-12T05:30:25;15.57;;;11.30;;
75894;SDS011;64573;50.328;15.014;2023-09-12T05:32:50;20.67;;;10.75;;
75894;SDS011;64573;50.328;15.014;2023-09-12T05:35:15;15.18;;;10.35;;
75894;SDS011;64573;50.328;15.014;2023-09-12T05:37:41;16.38;;;10.27;;
75894;SDS011;64573;50.328;15.014;2023-09-12T05:40:06;15.55;;;10.73;;
75894;SDS011;64573;50.328;15.014;2023-09-12T05:42:32;14.02;;;9.88;;
75894;SDS011;64573;50.328;15.014;2023-09-12T05:44:57;16.25;;;9.55;;
75894;SDS011;64573;50.328;15.014;2023-09-12T05:47:23;13.65;;;9.18;;
75894;SDS011;64573;50.328;15.014;2023-09-12T05:49:48;18.20;;;9.35;;
75894;SDS011;64573;50.328;15.014;2023-09-12T05:52:13;11.50;;;9.57;;
75894;SDS011;64573;50.328;15.014;2023-09-12T05:54:39;10.57;;;8.45;;
75894;SDS011;64573;50.328;15.014;2023-09-12T05:57:06;10.65;;;8.23;;
75894;SDS011;64573;50.328;15.014;2023-09-12T05:59:32;10.20;;;7.90;;
75894;SDS011;64573;50.328;15.014;2023-09-12T06:01:58;12.60;;;8.43;;
75894;SDS011;64573;50.328;15.014;2023-09-12T06:04:23;10.52;;;8.30;;
75894;SDS011;64573;50.328;15.014;2023-09-12T06:06:48;10.63;;;7.78;;
75894;SDS011;64573;50.328;15.014;2023-09-12T06:09:14;10.55;;;8.68;;
75894;SDS011;64573;50.328;15.014;2023-09-12T06:11:39;10.77;;;8.50;;
75894;SDS011;64573;50.328;15.014;2023-09-12T06:14:04;11.93;;;8.32;;
75894;SDS011;64573;50.328;15.014;2023-09-12T06:16:30;15.57;;;9.38;;
75894;SDS011;64573;50.328;15.014;2023-09-12T06:18:55;11.90;;;9.13;;
75894;SDS011;64573;50.328;15.014;2023-09-12T06:21:21;18.83;;;9.82;;
75894;SDS011;64573;50.328;15.014;2023-09-12T06:26:35;12.30;;;9.88;;
75894;SDS011;64573;50.328;15.014;2023-09-12T06:29:01;14.00;;;8.30;;
75894;SDS011;64573;50.328;15.014;2023-09-12T06:31:27;14.32;;;9.07;;
75894;SDS011;64573;50.328;15.014;2023-09-12T06:33:56;11.95;;;8.38;;
75894;SDS011;64573;50.328;15.014;2023-09-12T06:36:22;12.27;;;8.40;;
75894;SDS011;64573;50.328;15.014;2023-09-12T06:38:49;14.52;;;9.20;;
75894;SDS011;64573;50.328;15.014;2023-09-12T06:41:14;11.98;;;8.60;;
75894;SDS011;64573;50.328;15.014;2023-09-12T06:43:39;13.02;;;8.70;;
75894;SDS011;64573;50.328;15.014;2023-09-12T06:46:05;13.38;;;9.00;;
75894;SDS011;64573;50.328;15.014;2023-09-12T06:48:30;15.38;;;8.88;;
75894;SDS011;64573;50.328;15.014;2023-09-12T06:50:55;10.60;;;7.97;;
75894;SDS011;64573;50.328;15.014;2023-09-12T06:53:21;8.88;;;7.70;;
75894;SDS011;64573;50.328;15.014;2023-09-12T06:55:46;11.55;;;7.88;;
75894;SDS011;64573;50.328;15.014;2023-09-12T06:58:11;11.98;;;7.85;;
75894;SDS011;64573;50.328;15.014;2023-09-12T07:00:37;12.55;;;7.57;;
75894;SDS011;64573;50.328;15.014;2023-09-12T07:03:02;14.75;;;7.35;;
75894;SDS011;64573;50.328;15.014;2023-09-12T07:05:28;12.32;;;7.20;;
75894;SDS011;64573;50.328;15.014;2023-09-12T07:07:53;10.43;;;7.05;;
75894;SDS011;64573;50.328;15.014;2023-09-12T07:10:19;14.73;;;7.47;;
75894;SDS011;64573;50.328;15.014;2023-09-12T07:12:44;11.73;;;7.88;;
75894;SDS011;64573;50.328;15.014;2023-09-12T07:15:10;12.00;;;7.30;;
75894;SDS011;64573;50.328;15.014;2023-09-12T07:17:35;11.15;;;8.18;;
75894;SDS011;64573;50.328;15.014;2023-09-12T07:20:00;11.00;;;8.38;;
75894;SDS011;64573;50.328;15.014;2023-09-12T07:22:26;10.73;;;7.82;;
75894;SDS011;64573;50.328;15.014;2023-09-12T07:24:51;10.13;;;7.40;;
75894;SDS011;64573;50.328;15.014;2023-09-12T07:27:17;14.88;;;7.22;;
75894;SDS011;64573;50.328;15.014;2023-09-12T07:29:42;8.93;;;7.28;;
75894;SDS011;64573;50.328;15.014;2023-09-12T07:32:07;11.02;;;7.88;;
75894;SDS011;64573;50.328;15.014;2023-09-12T07:34:32;12.02;;;7.28;;
75894;SDS011;64573;50.328;15.014;2023-09-12T07:36:58;11.88;;;7.50;;
75894;SDS011;64573;50.328;15.014;2023-09-12T07:39:23;11.50;;;7.20;;
75894;SDS011;64573;50.328;15.014;2023-09-12T07:41:49;8.98;;;7.60;;
75894;SDS011;64573;50.328;15.014;2023-09-12T07:44:14;10.55;;;7.15;;
75894;SDS011;64573;50.328;15.014;2023-09-12T07:46:41;10.18;;;7.75;;
75894;SDS011;64573;50.328;15.014;2023-09-12T07:49:06;9.15;;;7.68;;
75894;SDS011;64573;50.328;15.014;2023-09-12T07:51:34;12.00;;;7.47;;
75894;SDS011;64573;50.328;15.014;2023-09-12T07:54:00;8.90;;;7.95;;
75894;SDS011;64573;50.328;15.014;2023-09-12T07:56:25;10.10;;;7.40;;
75894;SDS011;64573;50.328;15.014;2023-09-12T07:58:51;9.85;;;7.70;;
75894;SDS011;64573;50.328;15.014;2023-09-12T08:01:16;9.15;;;7.47;;
75894;SDS011;64573;50.328;15.014;2023-09-12T08:03:42;9.98;;;7.13;;
75894;SDS011;64573;50.328;15.014;2023-09-12T08:08:33;12.82;;;7.38;;
75894;SDS011;64573;50.328;15.014;2023-09-12T08:10:58;11.10;;;7.22;;
75894;SDS011;64573;50.328;15.014;2023-09-12T08:13:27;7.65;;;6.80;;
75894;SDS011;64573;50.328;15.014;2023-09-12T08:15:53;11.23;;;7.55;;
75894;SDS011;64573;50.328;15.014;2023-09-12T08:18:19;10.20;;;7.15;;
75894;SDS011;64573;50.328;15.014;2023-09-12T08:20:44;11.32;;;7.45;;
75894;SDS011;64573;50.328;15.014;2023-09-12T08:23:09;10.57;;;7.15;;
75894;SDS011;64573;50.328;15.014;2023-09-12T08:25:35;13.25;;;7.80;;
75894;SDS011;64573;50.328;15.014;2023-09-12T08:28:00;10.75;;;7.65;;
75894;SDS011;64573;50.328;15.014;2023-09-12T08:30:26;13.25;;;8.15;;
75894;SDS011;64573;50.328;15.014;2023-09-12T08:32:54;16.67;;;7.53;;
75894;SDS011;64573;50.328;15.014;2023-09-12T08:35:19;10.88;;;7.93;;
75894;SDS011;64573;50.328;15.014;2023-09-12T08:37:44;10.10;;;7.22;;
75894;SDS011;64573;50.328;15.014;2023-09-12T08:40:10;9.38;;;7.15;;
75894;SDS011;64573;50.328;15.014;2023-09-12T08:42:39;11.63;;;7.50;;
75894;SDS011;64573;50.328;15.014;2023-09-12T08:45:16;10.27;;;7.15;;
75894;SDS011;64573;50.328;15.014;2023-09-12T08:47:52;8.95;;;7.20;;
75894;SDS011;64573;50.328;15.014;2023-09-12T08:50:19;12.48;;;7.80;;
75894;SDS011;64573;50.328;15.014;2023-09-12T08:52:46;10.23;;;7.63;;
75894;SDS011;64573;50.328;15.014;2023-09-12T08:55:12;10.00;;;7.70;;
75894;SDS011;64573;50.328;15.014;2023-09-12T08:57:40;9.48;;;7.70;;
75894;SDS011;64573;50.328;15.014;2023-09-12T09:00:07;9.27;;;8.27;;
75894;SDS011;64573;50.328;15.014;2023-09-12T09:02:34;13.77;;;7.45;;
75894;SDS011;64573;50.328;15.014;2023-09-12T09:05:04;12.93;;;7.65;;
75894;SDS011;64573;50.328;15.014;2023-09-12T09:07:37;11.23;;;7.30;;
75894;SDS011;64573;50.328;15.014;2023-09-12T09:10:06;8.55;;;7.43;;
75894;SDS011;64573;50.328;15.014;2023-09-12T09:12:33;10.90;;;7.70;;
75894;SDS011;64573;50.328;15.014;2023-09-12T09:17:47;10.32;;;7.75;;
75894;SDS011;64573;50.328;15.014;2023-09-12T09:20:25;9.43;;;7.65;;
75894;SDS011;64573;50.328;15.014;2023-09-12T09:22:55;9.48;;;7.78;;
75894;SDS011;64573;50.328;15.014;2023-09-12T09:25:22;8.70;;;6.78;;
75894;SDS011;64573;50.328;15.014;2023-09-12T09:27:47;11.25;;;7.32;;
75894;SDS011;64573;50.328;15.014;2023-09-12T09:30:13;10.88;;;7.20;;
75894;SDS011;64573;50.328;15.014;2023-09-12T09:32:38;10.90;;;7.28;;
75894;SDS011;64573;50.328;15.014;2023-09-12T09:37:33;11.57;;;8.00;;
75894;SDS011;64573;50.328;15.014;2023-09-12T09:39:59;11.38;;;7.32;;
75894;SDS011;64573;50.328;15.014;2023-09-12T09:42:24;12.55;;;8.02;;
75894;SDS011;64573;50.328;15.014;2023-09-12T09:44:54;11.20;;;7.93;;
75894;SDS011;64573;50.328;15.014;2023-09-12T09:47:19;9.73;;;7.97;;
75894;SDS011;64573;50.328;15.014;2023-09-12T09:49:45;12.77;;;8.00;;
75894;SDS011;64573;50.328;15.014;2023-09-12T09:52:10;9.93;;;7.45;;
75894;SDS011;64573;50.328;15.014;2023-09-12T09:54:35;8.40;;;7.47;;
75894;SDS011;64573;50.328;15.014;2023-09-12T09:57:09;9.15;;;7.43;;
75894;SDS011;64573;50.328;15.014;2023-09-12T09:59:34;8.13;;;7.25;;
75894;SDS011;64573;50.328;15.014;2023-09-12T10:02:00;10.00;;;7.82;;
75894;SDS011;64573;50.328;15.014;2023-09-12T10:04:26;11.05;;;7.53;;
75894;SDS011;64573;50.328;15.014;2023-09-12T10:06:54;10.27;;;7.57;;
75894;SDS011;64573;50.328;15.014;2023-09-12T10:09:21;10.07;;;8.05;;
75894;SDS011;64573;50.328;15.014;2023-09-12T10:11:47;10.85;;;6.85;;
75894;SDS011;64573;50.328;15.014;2023-09-12T10:14:16;8.55;;;7.32;;
75894;SDS011;64573;50.328;15.014;2023-09-12T10:16:48;9.82;;;6.80;;
75894;SDS011;64573;50.328;15.014;2023-09-12T10:19:18;10.45;;;7.57;;
75894;SDS011;64573;50.328;15.014;2023-09-12T10:26:57;9.35;;;7.95;;
75894;SDS011;64573;50.328;15.014;2023-09-12T10:29:24;9.82;;;7.32;;
75894;SDS011;64573;50.328;15.014;2023-09-12T10:34:15;13.88;;;7.43;;
75894;SDS011;64573;50.328;15.014;2023-09-12T10:36:42;10.18;;;7.45;;
75894;SDS011;64573;50.328;15.014;2023-09-12T10:39:09;10.00;;;7.38;;
75894;SDS011;64573;50.328;15.014;2023-09-12T10:41:37;11.15;;;7.43;;
75894;SDS011;64573;50.328;15.014;2023-09-12T10:44:11;10.48;;;7.05;;
75894;SDS011;64573;50.328;15.014;2023-09-12T10:46:40;10.18;;;7.28;;
75894;SDS011;64573;50.328;15.014;2023-09-12T10:49:07;15.38;;;7.10;;
75894;SDS011;64573;50.328;15.014;2023-09-12T10:51:34;12.13;;;6.97;;
75894;SDS011;64573;50.328;15.014;2023-09-12T10:54:05;9.80;;;7.15;;
75894;SDS011;64573;50.328;15.014;2023-09-12T10:56:32;11.88;;;7.40;;
75894;SDS011;64573;50.328;15.014;2023-09-12T11:01:29;10.05;;;6.95;;
75894;SDS011;64573;50.328;15.014;2023-09-12T11:03:56;8.15;;;6.82;;
75894;SDS011;64573;50.328;15.014;2023-09-12T11:06:31;10.45;;;6.50;;
75894;SDS011;64573;50.328;15.014;2023-09-12T11:09:15;11.70;;;7.05;;
75894;SDS011;64573;50.328;15.014;2023-09-12T11:11:58;13.40;;;6.30;;
75894;SDS011;64573;50.328;15.014;2023-09-12T11:14:27;10.73;;;6.22;;
75894;SDS011;64573;50.328;15.014;2023-09-12T11:19:49;10.95;;;6.15;;
75894;SDS011;64573;50.328;15.014;2023-09-12T11:24:43;10.90;;;6.57;;
75894;SDS011;64573;50.328;15.014;2023-09-12T11:27:09;10.13;;;6.95;;
75894;SDS011;64573;50.328;15.014;2023-09-12T11:29:36;7.75;;;6.40;;
75894;SDS011;64573;50.328;15.014;2023-09-12T11:32:03;9.38;;;6.97;;
75894;SDS011;64573;50.328;15.014;2023-09-12T11:34:31;9.40;;;6.25;;
75894;SDS011;64573;50.328;15.014;2023-09-12T11:37:02;8.73;;;6.93;;
75894;SDS011;64573;50.328;15.014;2023-09-12T11:39:30;7.55;;;6.75;;
75894;SDS011;64573;50.328;15.014;2023-09-12T11:41:58;9.60;;;6.53;;
75894;SDS011;64573;50.328;15.014;2023-09-12T11:44:25;10.73;;;7.07;;
75894;SDS011;64573;50.328;15.014;2023-09-12T11:46:51;9.38;;;6.60;;
75894;SDS011;64573;50.328;15.014;2023-09-12T11:49:18;10.30;;;6.60;;
75894;SDS011;64573;50.328;15.014;2023-09-12T11:54:10;7.75;;;6.47;;
75894;SDS011;64573;50.328;15.014;2023-09-12T11:56:38;9.82;;;6.55;;
75894;SDS011;64573;50.328;15.014;2023-09-12T11:59:04;9.07;;;6.05;;
75894;SDS011;64573;50.328;15.014;2023-09-12T12:01:29;11.18;;;6.40;;
75894;SDS011;64573;50.328;15.014;2023-09-12T12:03:55;9.02;;;6.32;;
75894;SDS011;64573;50.328;15.014;2023-09-12T12:06:21;9.52;;;5.70;;
75894;SDS011;64573;50.328;15.014;2023-09-12T12:08:47;11.25;;;6.68;;
75894;SDS011;64573;50.328;15.014;2023-09-12T12:11:13;14.63;;;6.80;;
75894;SDS011;64573;50.328;15.014;2023-09-12T12:13:38;10.45;;;6.07;;
75894;SDS011;64573;50.328;15.014;2023-09-12T12:16:16;15.02;;;6.18;;
75894;SDS011;64573;50.328;15.014;2023-09-12T12:18:42;10.48;;;6.50;;
75894;SDS011;64573;50.328;15.014;2023-09-12T12:21:07;11.85;;;6.78;;
75894;SDS011;64573;50.328;15.014;2023-09-12T12:23:33;22.23;;;6.72;;
75894;SDS011;64573;50.328;15.014;2023-09-12T12:26:02;11.25;;;6.97;;
75894;SDS011;64573;50.328;15.014;2023-09-12T12:28:30;12.70;;;6.90;;
75894;SDS011;64573;50.328;15.014;2023-09-12T12:30:55;8.63;;;6.55;;
75894;SDS011;64573;50.328;15.014;2023-09-12T12:33:20;7.55;;;5.80;;
75894;SDS011;64573;50.328;15.014;2023-09-12T12:38:11;11.13;;;6.00;;
75894;SDS011;64573;50.328;15.014;2023-09-12T12:40:38;16.02;;;5.70;;
75894;SDS011;64573;50.328;15.014;2023-09-12T12:43:05;9.60;;;6.00;;
75894;SDS011;64573;50.328;15.014;2023-09-12T12:45:31;10.32;;;6.20;;
75894;SDS011;64573;50.328;15.014;2023-09-12T12:48:00;8.07;;;5.80;;
75894;SDS011;64573;50.328;15.014;2023-09-12T12:50:26;7.32;;;5.60;;
75894;SDS011;64573;50.328;15.014;2023-09-12T12:52:51;7.78;;;5.43;;
75894;SDS011;64573;50.328;15.014;2023-09-12T12:55:17;7.35;;;5.00;;
75894;SDS011;64573;50.328;15.014;2023-09-12T12:57:44;10.15;;;4.85;;
75894;SDS011;64573;50.328;15.014;2023-09-12T13:00:11;8.66;;;5.18;;
75894;SDS011;64573;50.328;15.014;2023-09-12T13:02:38;6.15;;;5.28;;
75894;SDS011;64573;50.328;15.014;2023-09-12T13:05:04;6.43;;;5.05;;
75894;SDS011;64573;50.328;15.014;2023-09-12T13:12:26;7.75;;;4.85;;
75894;SDS011;64573;50.328;15.014;2023-09-12T13:14:51;5.07;;;3.50;;
75894;SDS011;64573;50.328;15.014;2023-09-12T13:17:16;8.00;;;4.15;;
75894;SDS011;64573;50.328;15.014;2023-09-12T13:19:42;11.98;;;4.68;;
75894;SDS011;64573;50.328;15.014;2023-09-12T13:22:07;16.23;;;4.63;;
75894;SDS011;64573;50.328;15.014;2023-09-12T13:24:32;5.68;;;4.60;;
75894;SDS011;64573;50.328;15.014;2023-09-12T13:26:58;5.60;;;4.10;;
75894;SDS011;64573;50.328;15.014;2023-09-12T13:29:23;6.20;;;4.35;;
75894;SDS011;64573;50.328;15.014;2023-09-12T13:31:48;5.65;;;4.55;;
75894;SDS011;64573;50.328;15.014;2023-09-12T13:34:14;5.28;;;4.30;;
75894;SDS011;64573;50.328;15.014;2023-09-12T13:36:39;7.22;;;4.50;;
75894;SDS011;64573;50.328;15.014;2023-09-12T13:39:05;7.70;;;4.55;;
75894;SDS011;64573;50.328;15.014;2023-09-12T13:41:31;8.02;;;4.80;;
75894;SDS011;64573;50.328;15.014;2023-09-12T13:43:57;10.15;;;5.38;;
75894;SDS011;64573;50.328;15.014;2023-09-12T13:46:22;6.65;;;4.90;;
75894;SDS011;64573;50.328;15.014;2023-09-12T13:48:47;7.35;;;4.95;;
75894;SDS011;64573;50.328;15.014;2023-09-12T13:51:12;9.75;;;5.15;;
75894;SDS011;64573;50.328;15.014;2023-09-12T13:53:41;8.25;;;5.47;;
75894;SDS011;64573;50.328;15.014;2023-09-12T13:56:06;6.60;;;5.15;;
75894;SDS011;64573;50.328;15.014;2023-09-12T13:58:33;10.02;;;5.00;;
75894;SDS011;64573;50.328;15.014;2023-09-12T14:00:59;9.55;;;4.90;;
75894;SDS011;64573;50.328;15.014;2023-09-12T14:03:24;10.20;;;5.10;;
75894;SDS011;64573;50.328;15.014;2023-09-12T14:05:49;10.90;;;5.43;;
75894;SDS011;64573;50.328;15.014;2023-09-12T14:08:15;6.63;;;5.30;;
75894;SDS011;64573;50.328;15.014;2023-09-12T14:10:40;7.63;;;4.63;;
75894;SDS011;64573;50.328;15.014;2023-09-12T14:13:06;6.80;;;4.78;;
75894;SDS011;64573;50.328;15.014;2023-09-12T14:15:32;6.68;;;4.80;;
75894;SDS011;64573;50.328;15.014;2023-09-12T14:17:57;5.82;;;4.82;;
75894;SDS011;64573;50.328;15.014;2023-09-12T14:20:23;5.95;;;4.80;;
75894;SDS011;64573;50.328;15.014;2023-09-12T14:22:48;12.02;;;4.78;;
75894;SDS011;64573;50.328;15.014;2023-09-12T14:25:13;8.32;;;4.90;;
75894;SDS011;64573;50.328;15.014;2023-09-12T14:27:42;7.68;;;4.47;;
75894;SDS011;64573;50.328;15.014;2023-09-12T14:30:10;8.93;;;4.90;;
75894;SDS011;64573;50.328;15.014;2023-09-12T14:32:38;6.85;;;4.72;;
75894;SDS011;64573;50.328;15.014;2023-09-12T14:35:04;5.55;;;4.85;;
75894;SDS011;64573;50.328;15.014;2023-09-12T14:37:33;8.45;;;4.95;;
75894;SDS011;64573;50.328;15.014;2023-09-12T14:40:00;7.03;;;5.38;;
75894;SDS011;64573;50.328;15.014;2023-09-12T14:42:25;6.32;;;4.75;;
75894;SDS011;64573;50.328;15.014;2023-09-12T14:44:50;8.52;;;5.03;;
75894;SDS011;64573;50.328;15.014;2023-09-12T14:47:15;8.35;;;5.10;;
75894;SDS011;64573;50.328;15.014;2023-09-12T14:49:41;6.97;;;5.10;;
75894;SDS011;64573;50.328;15.014;2023-09-12T14:52:06;8.23;;;5.15;;
75894;SDS011;64573;50.328;15.014;2023-09-12T14:54:31;6.07;;;4.75;;
75894;SDS011;64573;50.328;15.014;2023-09-12T14:56:57;8.75;;;5.13;;
75894;SDS011;64573;50.328;15.014;2023-09-12T14:59:22;9.05;;;4.97;;
75894;SDS011;64573;50.328;15.014;2023-09-12T15:01:48;9.00;;;5.20;;
75894;SDS011;64573;50.328;15.014;2023-09-12T15:04:13;8.38;;;4.88;;
75894;SDS011;64573;50.328;15.014;2023-09-12T15:06:39;7.00;;;4.82;;
75894;SDS011;64573;50.328;15.014;2023-09-12T15:09:05;8.63;;;4.88;;
75894;SDS011;64573;50.328;15.014;2023-09-12T15:11:30;5.00;;;4.50;;
75894;SDS011;64573;50.328;15.014;2023-09-12T15:13:56;6.68;;;4.63;;
75894;SDS011;64573;50.328;15.014;2023-09-12T15:16:22;11.63;;;5.20;;
75894;SDS011;64573;50.328;15.014;2023-09-12T15:18:48;7.05;;;4.38;;
75894;SDS011;64573;50.328;15.014;2023-09-12T15:23:42;10.50;;;5.22;;
75894;SDS011;64573;50.328;15.014;2023-09-12T15:28:33;7.15;;;4.97;;
75894;SDS011;64573;50.328;15.014;2023-09-12T15:30:58;7.55;;;4.90;;
75894;SDS011;64573;50.328;15.014;2023-09-12T15:33:27;5.75;;;4.97;;
75894;SDS011;64573;50.328;15.014;2023-09-12T15:35:53;8.27;;;4.82;;
75894;SDS011;64573;50.328;15.014;2023-09-12T15:38:18;7.38;;;4.43;;
75894;SDS011;64573;50.328;15.014;2023-09-12T15:40:43;5.68;;;4.90;;
75894;SDS011;64573;50.328;15.014;2023-09-12T15:43:09;7.03;;;4.82;;
75894;SDS011;64573;50.328;15.014;2023-09-12T15:45:35;7.63;;;4.47;;
75894;SDS011;64573;50.328;15.014;2023-09-12T15:48:00;9.02;;;4.95;;